Time,TemperatureF,DewpointF,PressureIn,WindDirection,WindDirectionDegrees,WindSpeedMPH,WindSpeedGustMPH,Humidity,HourlyPrecipIn,Conditions,Clouds,dailyrainin,SoftwareType,DateUTC
2013-01-19 00:03:00,29.0,13.6,30.10,North,0,0.0,0.0,52,0.00, +FZSN FG BLRA SQ BLRA,OVC100 VV000 5SM,0.00,WUHU216HW,2013-01-19 07:03:00,
2013-01-19 00:08:00,28.6,13.2,30.11,North,0,0.0,0.0,52,0.00, +FZSN FG BLRA SQ BLRA,OVC100 VV000 5SM,0.00,WUHU216HW,2013-01-19 07:08:00,
2013-01-19 00:13:00,28.4,13.1,30.10,North,0,0.0,0.0,52,0.00, +FZSN FG BLRA SQ BLRA,OVC100 VV000 5SM,0.00,WUHU216HW,2013-01-19 07:13:00,
2013-01-19 00:18:00,28.4,13.1,30.11,North,0,0.0,0.0,52,0.00, +FZSN FG BLRA SQ BLRA,OVC100 VV000 5SM,0.00,WUHU216HW,2013-01-19 07:18:00,
2013-01-19 00:23:00,28.1,13.2,30.11,North,0,0.0,0.0,53,0.00, +FZSN FG BLRA SQ BLRA,OVC100 VV000 5SM,0.00,WUHU216HW,2013-01-19 07:23:00,
2013-01-19 00:28:00,27.7,12.8,30.11,North,0,0.0,0.0,53,0.00, +FZSN FG BLRA SQ BLRA,OVC100 VV000 5SM,0.00,WUHU216HW,2013-01-19 07:28:00,
2013-01-19 00:33:00,27.5,13.0,30.11,North,0,0.0,0.0,54,0.00, +FZSN FG BLRA SQ BLRA,OVC100 VV000 5SM,0.00,WUHU216HW,2013-01-19 07:33:00,
2013-01-19 00:38:00,27.5,13.0,30.11,North,0,0.0,0.0,54,0.00, +FZSN FG BLRA SQ BLRA,OVC100 VV000 5SM,0.00,WUHU216HW,2013-01-19 07:38:00,
2013-01-19 00:43:00,27.4,12.8,30.11,North,0,0.0,0.0,54,0.00, +FZSN FG BLRA SQ BLRA,OVC100 VV000 5SM,0.00,WUHU216HW,2013-01-19 07:43:00,
2013-01-19 00:48:00,27.2,13.1,30.10,North,0,0.0,0.0,55,0.00, +FZSN FG BLRA SQ BLRA,OVC100 VV000 5SM,0.00,WUHU216HW,2013-01-19 07:48:00,
2013-01-19 00:53:00,27.2,13.1,30.11,North,0,0.0,0.0,55,0.00, +FZSN FG BLRA SQ BLRA,OVC100 VV000 5SM,0.00,WUHU216HW,2013-01-19 07:53:00,
2013-01-19 00:58:00,27.4,13.7,30.11,North,0,0.0,0.0,56,0.00, +FZSN FG BLRA SQ BLRA,OVC100 VV000 5SM,0.00,WUHU216HW,2013-01-19 07:58:00,
2013-01-19 01:03:00,27.4,13.7,30.11,North,0,0.0,0.0,56,0.00, +FZSN FG BLRA SQ BLRA,OVC100 VV000 5SM,0.00,WUHU216HW,2013-01-19 08:03:00,
2013-01-19 01:08:00,27.4,13.7,30.11,North,0,0.0,0.0,56,0.00, +FZSN FG BLRA SQ BLRA,OVC100 VV000 5SM,0.00,WUHU216HW,2013-01-19 08:08:00,
2013-01-19 01:13:00,27.4,13.7,30.11,North,0,0.0,0.0,56,0.00, +FZSN FG BLRA SQ BLRA,OVC100 VV000 5SM,0.00,WUHU216HW,2013-01-19 08:13:00,
2013-01-19 01:18:00,26.8,12.7,30.11,North,0,0.0,0.0,55,0.00, +FZSN FG BLRA SQ BLRA,OVC100 VV000 5SM,0.00,WUHU216HW,2013-01-19 08:18:00,
2013-01-19 01:23:00,26.6,13.0,30.11,North,0,0.0,0.0,56,0.00, +FZSN FG BLRA SQ BLRA,OVC100 VV000 5SM,0.00,WUHU216HW,2013-01-19 08:23:00,
2013-01-19 01:28:00,26.1,12.4,30.11,North,0,0.0,0.0,56,0.00, +FZSN FG BLRA SQ BLRA,OVC100 VV000 5SM,0.00,WUHU216HW,2013-01-19 08:28:00,
2013-01-19 01:33:00,25.6,12.3,30.11,North,0,0.0,0.0,57,0.00, +FZSN FG BLRA SQ BLRA,OVC100 VV000 5SM,0.00,WUHU216HW,2013-01-19 08:33:00,
2013-01-19 01:38:00,25.6,12.3,30.11,North,0,0.0,0.0,57,0.00, +FZSN FG BLRA SQ BLRA,OVC100 VV000 5SM,0.00,WUHU216HW,2013-01-19 08:38:00,
2013-01-19 01:43:00,26.1,13.2,30.11,North,0,0.0,0.0,58,0.00, +FZSN FG BLRA SQ BLRA,OVC100 VV000 5SM,0.00,WUHU216HW,2013-01-19 08:43:00,
2013-01-19 01:48:00,26.1,13.2,30.11,North,0,0.0,0.0,58,0.00, +FZSN FG BLRA SQ BLRA,OVC100 VV000 5SM,0.00,WUHU216HW,2013-01-19 08:48:00,
2013-01-19 01:53:00,26.1,13.7,30.11,North,0,0.0,0.0,59,0.00, +FZSN FG BLRA SQ BLRA,OVC100 VV000 5SM,0.00,WUHU216HW,2013-01-19 08:53:00,
2013-01-19 01:58:00,25.9,13.2,30.11,North,0,0.0,0.0,58,0.00, +FZSN FG BLRA SQ BLRA,OVC100 VV000 5SM,0.00,WUHU216HW,2013-01-19 08:58:00,
2013-01-19 02:03:00,24.8,11.7,30.12,North,0,0.0,0.0,57,0.00, +FZSN FG BLRA SQ BLRA,OVC100 VV000 5SM,0.00,WUHU216HW,2013-01-19 09:03:00,
2013-01-19 02:08:00,24.3,11.6,30.12,North,0,0.0,0.0,58,0.00, +FZSN FG BLRA SQ BLRA,OVC100 VV000 5SM,0.00,WUHU216HW,2013-01-19 09:08:00,
2013-01-19 02:13:00,24.1,11.8,30.12,North,0,0.0,0.0,59,0.00, +FZSN FG BLRA SQ BLRA,OVC100 VV000 5SM,0.00,WUHU216HW,2013-01-19 09:13:00,
2013-01-19 02:18:00,24.3,12.4,30.12,North,0,0.0,0.0,60,0.00, +FZSN FG BLRA SQ BLRA,OVC100 VV000 5SM,0.00,WUHU216HW,2013-01-19 09:18:00,
2013-01-19 02:23:00,24.3,12.0,30.12,North,0,0.0,0.0,59,0.00, +FZSN FG BLRA SQ BLRA,OVC100 VV000 5SM,0.00,WUHU216HW,2013-01-19 09:23:00,
2013-01-19 02:28:00,24.3,12.4,30.11,North,0,0.0,0.0,60,0.00, +FZSN FG BLRA SQ BLRA,OVC100 VV000 5SM,0.00,WUHU216HW,2013-01-19 09:28:00,
2013-01-19 02:33:00,24.8,13.3,30.12,North,0,0.0,0.0,61,0.00, +FZSN FG BLRA SQ BLRA,OVC100 VV000 5SM,0.00,WUHU216HW,2013-01-19 09:33:00,
2013-01-19 02:38:00,24.8,13.0,30.11,North,0,0.0,0.0,60,0.00, +FZSN FG BLRA SQ BLRA,OVC100 VV000 5SM,0.00,WUHU216HW,2013-01-19 09:38:00,
2013-01-19 02:43:00,24.5,12.2,30.12,North,0,0.0,0.0,59,0.00, +FZSN FG BLRA SQ BLRA,OVC100 VV000 5SM,0.00,WUHU216HW,2013-01-19 09:43:00,
2013-01-19 02:48:00,24.5,12.6,30.12,North,0,0.0,0.0,60,0.00, +FZSN FG BLRA SQ BLRA,OVC100 VV000 5SM,0.00,WUHU216HW,2013-01-19 09:48:00,
2013-01-19 02:53:00,24.7,12.8,30.12,North,0,0.0,0.0,60,0.00, +FZSN FG BLRA SQ BLRA,OVC100 VV000 5SM,0.00,WUHU216HW,2013-01-19 09:53:00,
2013-01-19 02:58:00,24.7,13.2,30.12,North,0,0.0,0.0,61,0.00, +FZSN FG BLRA SQ BLRA,OVC100 VV000 5SM,0.00,WUHU216HW,2013-01-19 09:58:00,
2013-01-19 03:03:00,24.5,13.0,30.12,North,0,0.0,0.0,61,0.00, +FZSN FG BLRA SQ BLRA,OVC100 VV000 5SM,0.00,WUHU216HW,2013-01-19 10:03:00,
2013-01-19 03:08:00,24.3,12.8,30.12,North,0,0.0,0.0,61,0.00, +FZSN FG BLRA SQ BLRA,OVC100 VV000 5SM,0.00,WUHU216HW,2013-01-19 10:08:00,
2013-01-19 03:13:00,24.1,13.0,30.12,North,0,0.0,0.0,62,0.00, +FZSN FG BLRA SQ BLRA,OVC100 VV000 5SM,0.00,WUHU216HW,2013-01-19 10:13:00,
2013-01-19 03:18:00,23.8,13.0,30.12,North,0,0.0,0.0,63,0.00, +FZSN FG BLRA SQ BLRA,OVC100 VV000 5SM,0.00,WUHU216HW,2013-01-19 10:18:00,
2013-01-19 03:23:00,23.8,13.0,30.12,North,0,0.0,0.0,63,0.00, +FZSN FG BLRA SQ BLRA,OVC100 VV000 5SM,0.00,WUHU216HW,2013-01-19 10:23:00,
2013-01-19 03:28:00,24.1,13.3,30.12,North,0,0.0,0.0,63,0.00, +FZSN FG BLRA SQ BLRA,OVC100 VV000 5SM,0.00,WUHU216HW,2013-01-19 10:28:00,
2013-01-19 03:33:00,24.3,13.5,30.12,North,0,0.0,0.0,63,0.00, +FZSN FG BLRA SQ BLRA,OVC100 VV000 5SM,0.00,WUHU216HW,2013-01-19 10:33:00,
2013-01-19 03:38:00,24.1,13.3,30.12,North,0,0.0,0.0,63,0.00, +FZSN FG BLRA SQ BLRA,OVC100 VV000 5SM,0.00,WUHU216HW,2013-01-19 10:38:00,
2013-01-19 03:43:00,24.1,13.3,30.12,North,0,0.0,0.0,63,0.00, +FZSN FG BLRA SQ BLRA,OVC100 VV000 5SM,0.00,WUHU216HW,2013-01-19 10:43:00,
2013-01-19 03:48:00,24.3,13.5,30.12,North,0,0.0,0.0,63,0.00, +FZSN FG BLRA SQ BLRA,OVC100 VV000 5SM,0.00,WUHU216HW,2013-01-19 10:48:00,
2013-01-19 03:53:00,24.3,13.5,30.12,North,0,0.0,0.0,63,0.00, +FZSN FG BLRA SQ BLRA,OVC100 VV000 5SM,0.00,WUHU216HW,2013-01-19 10:53:00,
2013-01-19 03:58:00,24.3,13.2,30.12,North,0,0.0,0.0,62,0.00, +FZSN FG BLRA SQ BLRA,OVC100 VV000 5SM,0.00,WUHU216HW,2013-01-19 10:58:00,
2013-01-19 04:03:00,24.1,13.0,30.12,North,0,0.0,0.0,62,0.00, +FZSN FG BLRA SQ BLRA,OVC100 VV000 5SM,0.00,WUHU216HW,2013-01-19 11:03:00,
2013-01-19 04:08:00,23.9,13.2,30.12,North,0,0.0,0.0,63,0.00, +FZSN FG BLRA SQ BLRA,OVC100 VV000 5SM,0.00,WUHU216HW,2013-01-19 11:08:00,
2013-01-19 04:13:00,23.9,13.2,30.12,North,0,0.0,0.0,63,0.00, +FZSN FG BLRA SQ BLRA,OVC100 VV000 5SM,0.00,WUHU216HW,2013-01-19 11:13:00,
2013-01-19 04:14:00,23.9,13.2,30.11,North,0,0.0,0.0,63,0.00, +FZSN FG BLRA SQ BLRA,OVC100 VV000 5SM,0.00,WUHU216HW,2013-01-19 11:14:00,
2013-01-19 04:16:00,23.9,13.2,30.12,North,0,0.0,0.0,63,0.00, +FZSN FG BLRA SQ BLRA,OVC100 VV000 5SM,0.00,WUHU216HW,2013-01-19 11:16:00,
2013-01-19 04:17:00,23.9,13.2,30.11,North,0,0.0,0.0,63,0.00, +FZSN FG BLRA SQ BLRA,OVC100 VV000 5SM,0.00,WUHU216HW,2013-01-19 11:17:00,
2013-01-19 04:19:00,23.9,13.2,30.12,North,0,0.0,0.0,63,0.00, +FZSN FG BLRA SQ BLRA,OVC100 VV000 5SM,0.00,WUHU216HW,2013-01-19 11:19:00,
2013-01-19 04:22:00,23.9,13.2,30.11,North,0,0.0,0.0,63,0.00, +FZSN FG BLRA SQ BLRA,OVC100 VV000 5SM,0.00,WUHU216HW,2013-01-19 11:22:00,
2013-01-19 04:23:00,23.9,13.5,30.12,North,0,0.0,0.0,64,0.00, +FZSN FG BLRA SQ BLRA,OVC100 VV000 5SM,0.00,WUHU216HW,2013-01-19 11:23:00,
2013-01-19 04:25:00,23.9,13.2,30.11,North,0,0.0,0.0,63,0.00, +FZSN FG BLRA SQ BLRA,OVC100 VV000 5SM,0.00,WUHU216HW,2013-01-19 11:25:00,
2013-01-19 04:29:00,23.6,12.8,30.11,North,0,0.0,0.0,63,0.00, +FZSN FG BLRA SQ BLRA,OVC100 VV000 5SM,0.00,WUHU216HW,2013-01-19 11:29:00,
2013-01-19 04:31:00,23.4,12.6,30.11,North,0,0.0,0.0,63,0.00, +FZSN FG BLRA SQ BLRA,OVC100 VV000 5SM,0.00,WUHU216HW,2013-01-19 11:31:00,
2013-01-19 04:32:00,23.4,12.6,30.11,North,0,0.0,0.0,63,0.00, +FZSN FG BLRA SQ BLRA,OVC100 VV000 5SM,0.00,WUHU216HW,2013-01-19 11:32:00,
2013-01-19 04:34:00,23.4,12.6,30.11,North,0,0.0,0.0,63,0.00, +FZSN FG BLRA SQ BLRA,OVC100 VV000 5SM,0.00,WUHU216HW,2013-01-19 11:34:00,
2013-01-19 04:35:00,23.4,12.3,30.11,North,0,0.0,0.0,62,0.00, +FZSN FG BLRA SQ BLRA,OVC100 VV000 5SM,0.00,WUHU216HW,2013-01-19 11:35:00,
2013-01-19 04:37:00,23.2,12.4,30.11,North,0,0.0,0.0,63,0.00, +FZSN FG BLRA SQ BLRA,OVC100 VV000 5SM,0.00,WUHU216HW,2013-01-19 11:37:00,
2013-01-19 04:38:00,23.2,12.4,30.11,North,0,0.0,0.0,63,0.00, +FZSN FG BLRA SQ BLRA,OVC100 VV000 5SM,0.00,WUHU216HW,2013-01-19 11:38:00,
2013-01-19 04:40:00,23.0,12.2,30.11,North,0,0.0,0.0,63,0.00, +FZSN FG BLRA SQ BLRA,OVC100 VV000 5SM,0.00,WUHU216HW,2013-01-19 11:40:00,
2013-01-19 04:41:00,23.0,12.2,30.11,North,0,0.0,0.0,63,0.00, +FZSN FG BLRA SQ BLRA,OVC100 VV000 5SM,0.00,WUHU216HW,2013-01-19 11:41:00,
2013-01-19 04:43:00,23.0,12.2,30.11,North,0,0.0,0.0,63,0.00, +FZSN FG BLRA SQ BLRA,OVC100 VV000 5SM,0.00,WUHU216HW,2013-01-19 11:43:00,
2013-01-19 04:47:00,23.0,12.2,30.11,North,0,0.0,0.0,63,0.00, +FZSN FG BLRA SQ BLRA,OVC100 VV000 5SM,0.00,WUHU216HW,2013-01-19 11:47:00,
2013-01-19 04:49:00,23.0,12.2,30.11,North,0,0.0,0.0,63,0.00, +FZSN FG BLRA SQ BLRA,OVC100 VV000 5SM,0.00,WUHU216HW,2013-01-19 11:49:00,
2013-01-19 04:50:00,23.0,12.6,30.11,North,0,0.0,0.0,64,0.00, +FZSN FG BLRA SQ BLRA,OVC100 VV000 5SM,0.00,WUHU216HW,2013-01-19 11:50:00,
2013-01-19 04:52:00,23.0,12.2,30.11,North,0,0.0,0.0,63,0.00, +FZSN FG BLRA SQ BLRA,OVC100 VV000 5SM,0.00,WUHU216HW,2013-01-19 11:52:00,
2013-01-19 04:53:00,22.9,12.1,30.11,North,0,0.0,0.0,63,0.00, +FZSN FG BLRA SQ BLRA,OVC100 VV000 5SM,0.00,WUHU216HW,2013-01-19 11:53:00,
2013-01-19 04:58:00,22.7,11.9,30.11,North,0,0.0,0.0,63,0.00, +FZSN FG BLRA SQ BLRA,OVC100 VV000 5SM,0.00,WUHU216HW,2013-01-19 11:58:00,
2013-01-19 04:59:00,22.7,11.9,30.11,North,0,0.0,0.0,63,0.00, +FZSN FG BLRA SQ BLRA,OVC100 VV000 5SM,0.00,WUHU216HW,2013-01-19 11:59:00,
2013-01-19 05:01:00,22.7,11.9,30.11,North,0,0.0,0.0,63,0.00, +FZSN FG BLRA SQ BLRA,OVC100 VV000 5SM,0.00,WUHU216HW,2013-01-19 12:01:00,
2013-01-19 05:02:00,22.5,12.1,30.11,North,0,0.0,0.0,64,0.00, +FZSN FG BLRA SQ BLRA,OVC100 VV000 5SM,0.00,WUHU216HW,2013-01-19 12:02:00,
2013-01-19 05:04:00,22.3,11.9,30.11,North,0,0.0,0.0,64,0.00, +FZSN FG BLRA SQ BLRA,OVC100 VV000 5SM,0.00,WUHU216HW,2013-01-19 12:04:00,
2013-01-19 05:05:00,22.3,11.9,30.11,North,0,0.0,0.0,64,0.00, +FZSN FG BLRA SQ BLRA,OVC100 VV000 5SM,0.00,WUHU216HW,2013-01-19 12:05:00,
2013-01-19 05:10:00,22.1,12.1,30.11,North,0,0.0,0.0,65,0.00, +FZSN FG BLRA SQ BLRA,OVC100 VV000 5SM,0.00,WUHU216HW,2013-01-19 12:10:00,
2013-01-19 05:11:00,22.1,12.1,30.11,North,0,0.0,0.0,65,0.00, +FZSN FG BLRA SQ BLRA,OVC100 VV000 5SM,0.00,WUHU216HW,2013-01-19 12:11:00,
2013-01-19 05:12:00,22.1,12.1,30.11,North,0,0.0,0.0,65,0.00, +FZSN FG BLRA SQ BLRA,OVC100 VV000 5SM,0.00,WUHU216HW,2013-01-19 12:12:00,
2013-01-19 05:14:00,22.1,12.1,30.11,North,0,0.0,0.0,65,0.00, +FZSN FG BLRA SQ BLRA,OVC100 VV000 5SM,0.00,WUHU216HW,2013-01-19 12:14:00,
2013-01-19 05:15:00,22.1,12.1,30.11,North,0,0.0,0.0,65,0.00, +FZSN FG BLRA SQ BLRA,OVC100 VV000 5SM,0.00,WUHU216HW,2013-01-19 12:15:00,
2013-01-19 05:18:00,22.1,11.8,30.11,North,0,0.0,0.0,64,0.00, +FZSN FG BLRA SQ BLRA,OVC100 VV000 5SM,0.00,WUHU216HW,2013-01-19 12:18:00,
2013-01-19 05:20:00,22.0,11.6,30.12,North,0,0.0,0.0,64,0.00, +FZSN FG BLRA SQ BLRA,OVC100 VV000 5SM,0.00,WUHU216HW,2013-01-19 12:20:00,
2013-01-19 05:21:00,22.0,11.6,30.12,North,0,0.0,0.0,64,0.00, +FZSN FG BLRA SQ BLRA,OVC100 VV000 5SM,0.00,WUHU216HW,2013-01-19 12:21:00,
2013-01-19 05:26:00,22.0,12.0,30.12,North,0,0.0,0.0,65,0.00, +FZSN FG BLRA SQ BLRA,OVC100 VV000 5SM,0.00,WUHU216HW,2013-01-19 12:26:00,
2013-01-19 05:27:00,22.0,12.2,30.12,North,0,0.0,0.0,66,0.00, +FZSN FG BLRA SQ BLRA,OVC100 VV000 5SM,0.00,WUHU216HW,2013-01-19 12:27:00,
2013-01-19 05:29:00,22.1,12.4,30.12,North,0,0.0,0.0,66,0.00, +FZSN FG BLRA SQ BLRA,OVC100 VV000 5SM,0.00,WUHU216HW,2013-01-19 12:29:00,
2013-01-19 05:30:00,22.0,12.2,30.12,North,0,0.0,0.0,66,0.00, +FZSN FG BLRA SQ BLRA,OVC100 VV000 5SM,0.00,WUHU216HW,2013-01-19 12:30:00,
2013-01-19 05:32:00,22.1,12.4,30.12,North,0,0.0,0.0,66,0.00, +FZSN FG BLRA SQ BLRA,OVC100 VV000 5SM,0.00,WUHU216HW,2013-01-19 12:32:00,
2013-01-19 05:33:00,22.1,12.4,30.12,North,0,0.0,0.0,66,0.00, +FZSN FG BLRA SQ BLRA,OVC100 VV000 5SM,0.00,WUHU216HW,2013-01-19 12:33:00,
2013-01-19 05:35:00,22.1,12.4,30.12,North,0,0.0,0.0,66,0.00, +FZSN FG BLRA SQ BLRA,OVC100 VV000 5SM,0.00,WUHU216HW,2013-01-19 12:35:00,
2013-01-19 05:36:00,22.3,12.6,30.12,North,0,0.0,0.0,66,0.00, +FZSN FG BLRA SQ BLRA,OVC100 VV000 5SM,0.00,WUHU216HW,2013-01-19 12:36:00,
2013-01-19 05:38:00,22.3,13.0,30.12,North,0,0.0,0.0,67,0.00, +FZSN FG BLRA SQ BLRA,OVC100 VV000 5SM,0.00,WUHU216HW,2013-01-19 12:38:00,
2013-01-19 05:48:00,22.3,12.6,30.12,North,0,0.0,0.0,66,0.00, +FZSN FG BLRA SQ BLRA,OVC100 VV000 5SM,0.00,WUHU216HW,2013-01-19 12:48:00,
2013-01-19 05:53:00,22.0,12.0,30.12,North,0,0.0,0.0,65,0.00, +FZSN FG BLRA SQ BLRA,OVC100 VV000 5SM,0.00,WUHU216HW,2013-01-19 12:53:00,
2013-01-19 05:58:00,21.6,11.6,30.12,North,0,0.0,0.0,65,0.00, +FZSN FG BLRA SQ BLRA,OVC100 VV000 5SM,0.00,WUHU216HW,2013-01-19 12:58:00,
2013-01-19 06:03:00,21.6,11.6,30.12,North,0,0.0,0.0,65,0.00, +FZSN FG BLRA SQ BLRA,OVC100 VV000 5SM,0.00,WUHU216HW,2013-01-19 13:03:00,
2013-01-19 06:08:00,21.6,11.6,30.12,North,0,0.0,0.0,65,0.00, +FZSN FG BLRA SQ BLRA,OVC100 VV000 5SM,0.00,WUHU216HW,2013-01-19 13:08:00,
2013-01-19 06:13:00,21.4,11.4,30.12,North,0,0.0,0.0,65,0.00, +FZSN FG BLRA SQ BLRA,OVC100 VV000 5SM,0.00,WUHU216HW,2013-01-19 13:13:00,
2013-01-19 06:18:00,21.1,11.1,30.13,North,0,0.0,0.0,65,0.00, +FZSN FG BLRA SQ BLRA,OVC100 VV000 5SM,0.00,WUHU216HW,2013-01-19 13:18:00,
2013-01-19 06:23:00,20.9,10.9,30.13,North,0,0.0,0.0,65,0.00, +FZSN FG BLRA SQ BLRA,OVC100 VV000 5SM,0.00,WUHU216HW,2013-01-19 13:23:00,
2013-01-19 06:28:00,20.7,11.1,30.13,North,0,0.0,0.0,66,0.00, +FZSN FG BLRA SQ BLRA,OVC100 VV000 5SM,0.00,WUHU216HW,2013-01-19 13:28:00,
2013-01-19 06:33:00,20.5,10.9,30.13,North,0,0.0,0.0,66,0.00, +FZSN FG BLRA SQ BLRA,OVC100 VV000 5SM,0.00,WUHU216HW,2013-01-19 13:33:00,
2013-01-19 06:38:00,20.3,10.7,30.13,North,0,0.0,0.0,66,0.00, +FZSN FG BLRA SQ BLRA,OVC100 VV000 5SM,0.00,WUHU216HW,2013-01-19 13:38:00,
2013-01-19 06:43:00,20.2,10.2,30.13,North,0,0.0,0.0,65,0.00, +FZSN FG BLRA SQ BLRA,OVC100 VV000 5SM,0.00,WUHU216HW,2013-01-19 13:43:00,
2013-01-19 06:48:00,20.0,10.7,30.13,North,0,0.0,0.0,67,0.00, +FZSN FG BLRA SQ BLRA,OVC100 VV000 5SM,0.00,WUHU216HW,2013-01-19 13:48:00,
2013-01-19 06:53:00,20.0,11.0,30.13,North,0,0.0,0.0,68,0.00, +FZSN FG BLRA SQ BLRA,OVC100 VV000 5SM,0.00,WUHU216HW,2013-01-19 13:53:00,
2013-01-19 06:58:00,20.3,11.3,30.14,North,0,0.0,0.0,68,0.00, +FZSN FG BLRA SQ BLRA,OVC100 VV000 5SM,0.00,WUHU216HW,2013-01-19 13:58:00,
2013-01-19 07:03:00,20.3,11.3,30.14,North,0,0.0,0.0,68,0.00, +FZSN FG BLRA SQ BLRA,OVC100 VV000 5SM,0.00,WUHU216HW,2013-01-19 14:03:00,
2013-01-19 07:08:00,20.5,11.9,30.14,North,0,0.0,0.0,69,0.00, +FZSN FG BLRA SQ BLRA,OVC100 VV000 5SM,0.00,WUHU216HW,2013-01-19 14:08:00,
2013-01-19 07:13:00,20.5,11.9,30.14,North,0,0.0,0.0,69,0.00, +FZSN FG BLRA SQ BLRA,OVC100 VV000 5SM,0.00,WUHU216HW,2013-01-19 14:13:00,
2013-01-19 07:18:00,20.9,12.2,30.14,North,0,0.0,0.0,69,0.00, +FZSN FG BLRA SQ BLRA,OVC100 VV000 5SM,0.00,WUHU216HW,2013-01-19 14:18:00,
2013-01-19 07:23:00,20.9,12.2,30.14,North,0,0.0,0.0,69,0.00, +FZSN FG BLRA SQ BLRA,OVC100 VV000 5SM,0.00,WUHU216HW,2013-01-19 14:23:00,
2013-01-19 07:28:00,21.2,12.6,30.14,North,0,0.0,0.0,69,0.00, +FZSN FG BLRA SQ BLRA,OVC100 VV000 5SM,0.00,WUHU216HW,2013-01-19 14:28:00,
2013-01-19 07:33:00,21.1,12.4,30.14,North,0,0.0,0.0,69,0.00, +FZSN FG BLRA SQ BLRA,OVC100 VV000 5SM,0.00,WUHU216HW,2013-01-19 14:33:00,
2013-01-19 07:38:00,21.1,12.4,30.15,North,0,0.0,0.0,69,0.00, +FZSN FG BLRA SQ BLRA,OVC100 VV000 5SM,0.00,WUHU216HW,2013-01-19 14:38:00,
2013-01-19 07:43:00,21.1,12.4,30.15,North,0,0.0,0.0,69,0.00, +FZSN FG BLRA SQ BLRA,OVC100 VV000 5SM,0.00,WUHU216HW,2013-01-19 14:43:00,
2013-01-19 07:48:00,20.7,11.7,30.15,North,0,0.0,0.0,68,0.00, +FZSN FG BLRA SQ BLRA,OVC100 VV000 5SM,0.00,WUHU216HW,2013-01-19 14:48:00,
2013-01-19 07:53:00,20.0,11.0,30.15,North,0,0.0,0.0,68,0.00, +FZSN FG BLRA SQ BLRA,OVC100 VV000 5SM,0.00,WUHU216HW,2013-01-19 14:53:00,
2013-01-19 07:58:00,19.8,11.2,30.16,North,0,0.0,0.0,69,0.00, +FZSN FG BLRA SQ BLRA,OVC100 VV000 5SM,0.00,WUHU216HW,2013-01-19 14:58:00,
2013-01-19 08:03:00,20.2,11.5,30.16,North,0,0.0,0.0,69,0.00, +FZSN FG BLRA SQ BLRA,OVC100 VV000 5SM,0.00,WUHU216HW,2013-01-19 15:03:00,
2013-01-19 08:08:00,20.5,11.9,30.16,North,0,0.0,0.0,69,0.00, +FZSN FG BLRA SQ BLRA,OVC100 VV000 5SM,0.00,WUHU216HW,2013-01-19 15:08:00,
2013-01-19 08:13:00,20.5,11.9,30.16,North,0,0.0,0.0,69,0.00, +FZSN FG BLRA SQ BLRA,OVC100 VV000 5SM,0.00,WUHU216HW,2013-01-19 15:13:00,
2013-01-19 08:18:00,20.9,12.2,30.16,North,0,0.0,0.0,69,0.00, +FZSN FG BLRA SQ BLRA,OVC100 VV000 5SM,0.00,WUHU216HW,2013-01-19 15:18:00,
2013-01-19 08:23:00,21.4,13.1,30.16,North,0,0.0,0.0,70,0.00, +FZSN FG BLRA SQ BLRA,OVC100 VV000 5SM,0.00,WUHU216HW,2013-01-19 15:23:00,
2013-01-19 08:28:00,22.3,14.3,30.16,North,0,0.0,0.0,71,0.00, +FZSN FG BLRA SQ BLRA,OVC100 VV000 5SM,0.00,WUHU216HW,2013-01-19 15:28:00,
2013-01-19 08:33:00,23.4,15.1,30.16,North,0,0.0,0.0,70,0.00, +FZSN FG BLRA SQ BLRA,OVC100 VV000 5SM,0.00,WUHU216HW,2013-01-19 15:33:00,
2013-01-19 08:38:00,24.5,16.0,30.16,North,0,0.0,0.0,70,0.00, +FZSN FG BLRA SQ BLRA,OVC100 VV000 5SM,0.00,WUHU216HW,2013-01-19 15:38:00,
2013-01-19 08:43:00,25.4,16.9,30.16,North,0,0.0,0.0,70,0.00, +FZSN FG BLRA SQ BLRA,OVC100 VV000 5SM,0.00,WUHU216HW,2013-01-19 15:43:00,
2013-01-19 08:48:00,26.1,17.3,30.16,North,0,0.0,0.0,69,0.00, +FZSN FG BLRA SQ BLRA,OVC100 VV000 5SM,0.00,WUHU216HW,2013-01-19 15:48:00,
2013-01-19 08:53:00,27.0,17.8,30.17,North,0,0.0,0.0,68,0.00, +FZSN FG BLRA SQ BLRA,OVC100 VV000 5SM,0.00,WUHU216HW,2013-01-19 15:53:00,
2013-01-19 08:58:00,27.7,17.8,30.17,North,0,0.0,0.0,66,0.00, +FZSN FG BLRA SQ BLRA,OVC100 VV000 5SM,0.00,WUHU216HW,2013-01-19 15:58:00,
2013-01-19 09:03:00,28.4,18.5,30.18,North,0,0.0,0.0,66,0.00, +FZSN FG BLRA SQ BLRA,OVC100 VV000 5SM,0.00,WUHU216HW,2013-01-19 16:03:00,
2013-01-19 09:08:00,29.0,18.6,30.17,North,0,0.0,0.0,65,0.00, +FZSN FG BLRA SQ BLRA,OVC100 VV000 5SM,0.00,WUHU216HW,2013-01-19 16:08:00,
2013-01-19 09:13:00,29.5,19.2,30.17,North,0,0.0,0.0,65,0.00, +FZSN FG BLRA SQ BLRA,OVC100 VV000 5SM,0.00,WUHU216HW,2013-01-19 16:13:00,
2013-01-19 09:18:00,29.9,19.1,30.17,North,0,0.0,0.0,64,0.00, +FZSN FG BLRA SQ BLRA,OVC100 VV000 5SM,0.00,WUHU216HW,2013-01-19 16:18:00,
2013-01-19 09:23:00,30.4,19.3,30.17,North,0,0.0,0.0,63,0.00, +FZSN FG BLRA SQ BLRA,OVC100 VV000 5SM,0.00,WUHU216HW,2013-01-19 16:23:00,
2013-01-19 09:28:00,31.1,19.6,30.18,North,0,0.0,0.0,62,0.00, +FZSN FG BLRA SQ BLRA,OVC100 VV000 5SM,0.00,WUHU216HW,2013-01-19 16:28:00,
2013-01-19 09:33:00,31.7,19.8,30.18,North,0,0.0,0.0,61,0.00, +FZSN FG BLRA SQ BLRA,OVC100 VV000 5SM,0.00,WUHU216HW,2013-01-19 16:33:00,
2013-01-19 09:38:00,31.9,19.6,30.18,North,0,0.0,0.0,60,0.00, +FZSN FG BLRA SQ BLRA,OVC100 VV000 5SM,0.00,WUHU216HW,2013-01-19 16:38:00,
2013-01-19 09:43:00,32.0,19.8,30.18,North,0,0.0,0.0,60,0.00, +FZSN FG BLRA SQ BLRA,OVC100 VV000 5SM,0.00,WUHU216HW,2013-01-19 16:43:00,
2013-01-19 09:48:00,32.4,19.7,30.18,North,0,0.0,0.0,59,0.00, +FZSN FG BLRA SQ BLRA,OVC100 VV000 5SM,0.00,WUHU216HW,2013-01-19 16:48:00,
2013-01-19 09:54:00,32.8,19.6,30.18,North,0,0.0,0.0,58,0.00, +FZSN FG BLRA SQ BLRA,OVC100 VV000 5SM,0.00,WUHU216HW,2013-01-19 16:54:00,
2013-01-19 09:59:00,33.3,19.6,30.18,North,0,0.0,0.0,57,0.00, +FZSN FG BLRA SQ BLRA,OVC100 VV000 5SM,0.00,WUHU216HW,2013-01-19 16:59:00,
2013-01-19 10:04:00,33.8,19.7,30.18,North,0,0.0,0.0,56,0.00, +FZSN FG BLRA SQ BLRA,OVC100 VV000 5SM,0.00,WUHU216HW,2013-01-19 17:04:00,
2013-01-19 10:09:00,34.2,20.1,30.19,North,0,0.0,0.0,56,0.00, +FZSN FG BLRA SQ BLRA,OVC100 VV000 5SM,0.00,WUHU216HW,2013-01-19 17:09:00,
2013-01-19 10:14:00,34.9,20.8,30.19,North,0,0.0,0.0,56,0.00, +FZSN FG BLRA SQ BLRA,OVC100 VV000 5SM,0.00,WUHU216HW,2013-01-19 17:14:00,
2013-01-19 10:19:00,35.5,20.9,30.19,North,0,0.0,0.0,55,0.00, +FZSN FG BLRA SQ BLRA,OVC100 VV000 5SM,0.00,WUHU216HW,2013-01-19 17:19:00,
2013-01-19 10:25:00,36.4,21.2,30.18,North,0,0.0,0.0,54,0.00, +FZSN FG BLRA SQ BLRA,OVC100 VV000 5SM,0.00,WUHU216HW,2013-01-19 17:25:00,
2013-01-19 10:30:00,36.7,21.2,30.18,North,0,0.0,0.0,53,0.00, +FZSN FG BLRA SQ BLRA,OVC100 VV000 5SM,0.00,WUHU216HW,2013-01-19 17:30:00,
2013-01-19 10:35:00,37.4,21.8,30.18,North,0,0.0,0.0,53,0.00, +FZSN FG BLRA SQ BLRA,OVC100 VV000 5SM,0.00,WUHU216HW,2013-01-19 17:35:00,
2013-01-19 10:40:00,38.3,22.2,30.18,North,0,0.0,0.0,52,0.00, +FZSN FG BLRA SQ BLRA,OVC100 VV000 5SM,0.00,WUHU216HW,2013-01-19 17:40:00,
2013-01-19 10:45:00,39.1,22.4,30.18,North,0,0.0,0.0,51,0.00, +FZSN FG BLRA SQ BLRA,OVC100 VV000 5SM,0.00,WUHU216HW,2013-01-19 17:45:00,
2013-01-19 10:50:00,40.0,22.2,30.18,North,0,0.0,0.0,49,0.00, +FZSN FG BLRA SQ BLRA,OVC100 VV000 5SM,0.00,WUHU216HW,2013-01-19 17:50:00,
2013-01-19 10:55:00,40.3,22.6,30.18,North,0,0.0,0.0,49,0.00, +FZSN FG BLRA SQ BLRA,OVC100 VV000 5SM,0.00,WUHU216HW,2013-01-19 17:55:00,
2013-01-19 11:00:00,41.2,22.9,30.18,North,0,0.0,0.0,48,0.00, +FZSN FG BLRA SQ BLRA,OVC100 VV000 5SM,0.00,WUHU216HW,2013-01-19 18:00:00,
2013-01-19 11:05:00,41.9,23.6,30.18,North,0,0.0,0.0,48,0.00, +FZSN FG BLRA SQ BLRA,OVC100 VV000 5SM,0.00,WUHU216HW,2013-01-19 18:05:00,
2013-01-19 11:11:00,42.7,23.8,30.18,North,0,0.0,0.0,47,0.00, +FZSN FG BLRA SQ BLRA,OVC100 VV000 5SM,0.00,WUHU216HW,2013-01-19 18:11:00,
2013-01-19 11:16:00,43.6,23.5,30.17,North,0,0.0,0.0,45,0.00, +FZSN FG BLRA SQ BLRA,OVC100 VV000 5SM,0.00,WUHU216HW,2013-01-19 18:16:00,
2013-01-19 11:21:00,44.3,23.6,30.17,North,0,0.0,0.0,44,0.00, +FZSN FG BLRA SQ BLRA,OVC100 VV000 5SM,0.00,WUHU216HW,2013-01-19 18:21:00,
2013-01-19 11:27:00,45.0,23.8,30.17,North,0,0.0,0.0,43,0.00, +FZSN FG BLRA SQ BLRA,OVC100 VV000 5SM,0.00,WUHU216HW,2013-01-19 18:27:00,
2013-01-19 11:32:00,46.1,24.1,30.17,North,0,0.0,0.0,42,0.00, +FZSN FG BLRA SQ BLRA,OVC100 VV000 5SM,0.00,WUHU216HW,2013-01-19 18:32:00,
2013-01-19 11:37:00,47.0,24.4,30.17,North,0,0.0,0.0,41,0.00, +FZSN FG BLRA SQ BLRA,OVC100 VV000 5SM,0.00,WUHU216HW,2013-01-19 18:37:00,
2013-01-19 11:42:00,47.3,23.6,30.16,North,0,0.0,0.0,39,0.00, +FZSN FG BLRA SQ BLRA,OVC100 VV000 5SM,0.00,WUHU216HW,2013-01-19 18:42:00,
2013-01-19 11:47:00,48.1,23.5,30.16,North,0,0.0,0.0,38,0.00, +FZSN FG BLRA SQ BLRA,OVC100 VV000 5SM,0.00,WUHU216HW,2013-01-19 18:47:00,
2013-01-19 11:52:00,48.6,23.3,30.16,North,0,0.0,0.0,37,0.00, +FZSN FG BLRA SQ BLRA,OVC100 VV000 5SM,0.00,WUHU216HW,2013-01-19 18:52:00,
2013-01-19 11:57:00,49.0,23.0,30.16,North,0,0.0,0.0,36,0.00, +FZSN FG BLRA SQ BLRA,OVC100 VV000 5SM,0.00,WUHU216HW,2013-01-19 18:57:00,
2013-01-19 12:03:00,49.9,23.8,30.15,North,0,0.0,0.0,36,0.00, +FZSN FG BLRA SQ BLRA,OVC100 VV000 5SM,0.00,WUHU216HW,2013-01-19 19:03:00,
2013-01-19 12:08:00,50.8,23.9,30.15,North,0,0.0,0.0,35,0.00, +FZSN FG BLRA SQ BLRA,OVC100 VV000 5SM,0.00,WUHU216HW,2013-01-19 19:08:00,
2013-01-19 12:13:00,51.7,24.0,30.14,North,0,0.0,0.0,34,0.00, +FZSN FG BLRA SQ BLRA,OVC100 VV000 5SM,0.00,WUHU216HW,2013-01-19 19:13:00,
2013-01-19 12:18:00,52.7,24.9,30.14,North,0,0.0,0.0,34,0.00, +FZSN FG BLRA SQ BLRA,OVC100 VV000 5SM,0.00,WUHU216HW,2013-01-19 19:18:00,
2013-01-19 12:24:00,53.6,24.4,30.14,North,0,0.0,0.0,32,0.00, +FZSN FG BLRA SQ BLRA,OVC100 VV000 5SM,0.00,WUHU216HW,2013-01-19 19:24:00,
2013-01-19 12:29:00,54.2,24.8,30.14,North,0,0.0,0.0,32,0.00, +FZSN FG BLRA SQ BLRA,OVC100 VV000 5SM,0.00,WUHU216HW,2013-01-19 19:29:00,
2013-01-19 12:34:00,54.9,24.8,30.14,North,0,0.0,0.0,31,0.00, +FZSN FG BLRA SQ BLRA,OVC100 VV000 5SM,0.00,WUHU216HW,2013-01-19 19:34:00,
2013-01-19 12:39:00,55.3,24.3,30.13,North,0,0.0,0.0,30,0.00, +FZSN FG BLRA SQ BLRA,OVC100 VV000 5SM,0.00,WUHU216HW,2013-01-19 19:39:00,
2013-01-19 12:44:00,56.0,24.9,30.13,North,0,0.0,0.0,30,0.00, +FZSN FG BLRA SQ BLRA,OVC100 VV000 5SM,0.00,WUHU216HW,2013-01-19 19:44:00,
2013-01-19 12:50:00,56.5,24.5,30.13,North,0,0.0,0.0,29,0.00, +FZSN FG BLRA SQ BLRA,OVC100 VV000 5SM,0.00,WUHU216HW,2013-01-19 19:50:00,
2013-01-19 12:55:00,57.4,24.4,30.13,North,0,0.0,0.0,28,0.00, +FZSN FG BLRA SQ BLRA,OVC100 VV000 5SM,0.00,WUHU216HW,2013-01-19 19:55:00,
2013-01-19 13:00:00,57.8,24.7,30.13,North,0,0.0,0.0,28,0.00, +FZSN FG BLRA SQ BLRA,OVC100 VV000 5SM,0.00,WUHU216HW,2013-01-19 20:00:00,
2013-01-19 13:06:00,58.7,25.5,30.13,North,0,0.0,0.0,28,0.00, +FZSN FG BLRA SQ BLRA,OVC100 VV000 5SM,0.00,WUHU216HW,2013-01-19 20:06:00,
2013-01-19 13:11:00,59.2,24.9,30.12,North,0,0.0,0.0,27,0.00, +FZSN FG BLRA SQ BLRA,OVC100 VV000 5SM,0.00,WUHU216HW,2013-01-19 20:11:00,
2013-01-19 13:17:00,59.9,25.6,30.12,North,0,0.0,0.0,27,0.00, +FZSN FG BLRA SQ BLRA,OVC100 VV000 5SM,0.00,WUHU216HW,2013-01-19 20:17:00,
2013-01-19 13:22:00,60.3,24.0,30.12,North,0,0.0,0.0,25,0.00, +FZSN FG BLRA SQ BLRA,OVC100 VV000 5SM,0.00,WUHU216HW,2013-01-19 20:22:00,
2013-01-19 13:27:00,60.7,24.2,30.12,North,0,0.0,0.0,25,0.00, +FZSN FG BLRA SQ BLRA,OVC100 VV000 5SM,0.00,WUHU216HW,2013-01-19 20:27:00,
2013-01-19 13:32:00,60.8,24.4,30.11,North,0,0.0,0.0,25,0.00, +FZSN FG BLRA SQ BLRA,OVC100 VV000 5SM,0.00,WUHU216HW,2013-01-19 20:32:00,
2013-01-19 13:38:00,61.9,25.3,30.11,North,0,0.0,0.0,25,0.00, +FZSN FG BLRA SQ BLRA,OVC100 VV000 5SM,0.00,WUHU216HW,2013-01-19 20:38:00,
2013-01-19 13:43:00,62.6,25.9,30.11,North,0,0.0,0.0,25,0.00, +FZSN FG BLRA SQ BLRA,OVC100 VV000 5SM,0.00,WUHU216HW,2013-01-19 20:43:00,
2013-01-19 13:48:00,63.0,25.3,30.11,North,0,0.0,0.0,24,0.00, +FZSN FG BLRA SQ BLRA,OVC100 VV000 5SM,0.00,WUHU216HW,2013-01-19 20:48:00,
2013-01-19 13:53:00,63.5,25.8,30.10,North,0,0.0,0.0,24,0.00, +FZSN FG BLRA SQ BLRA,OVC100 VV000 5SM,0.00,WUHU216HW,2013-01-19 20:53:00,
2013-01-19 13:58:00,64.3,25.3,30.10,North,0,0.0,0.0,23,0.00, +FZSN FG BLRA SQ BLRA,OVC100 VV000 5SM,0.00,WUHU216HW,2013-01-19 20:58:00,
2013-01-19 14:03:00,64.8,24.8,30.10,North,0,0.0,0.0,22,0.00, +FZSN FG BLRA SQ BLRA,OVC100 VV000 5SM,0.00,WUHU216HW,2013-01-19 21:03:00,
2013-01-19 14:08:00,65.2,26.1,30.10,North,0,0.0,0.0,23,0.00, +FZSN FG BLRA SQ BLRA,OVC100 VV000 5SM,0.00,WUHU216HW,2013-01-19 21:08:00,
2013-01-19 14:14:00,66.1,26.8,30.10,North,0,0.0,0.0,23,0.00, +FZSN FG BLRA SQ BLRA,OVC100 VV000 5SM,0.00,WUHU216HW,2013-01-19 21:14:00,
2013-01-19 14:19:00,66.2,25.9,30.10,North,0,0.0,0.0,22,0.00, +FZSN FG BLRA SQ BLRA,OVC100 VV000 5SM,0.00,WUHU216HW,2013-01-19 21:19:00,
2013-01-19 14:24:00,66.2,25.9,30.10,North,0,0.0,0.0,22,0.00, +FZSN FG BLRA SQ BLRA,OVC100 VV000 5SM,0.00,WUHU216HW,2013-01-19 21:24:00,
2013-01-19 14:29:00,65.9,24.7,30.10,North,0,0.0,0.0,21,0.00, +FZSN FG BLRA SQ BLRA,OVC100 VV000 5SM,0.00,WUHU216HW,2013-01-19 21:29:00,
2013-01-19 14:34:00,65.3,25.2,30.10,North,0,0.0,0.0,22,0.00, +FZSN FG BLRA SQ BLRA,OVC100 VV000 5SM,0.00,WUHU216HW,2013-01-19 21:34:00,
2013-01-19 14:39:00,65.5,25.4,30.09,North,0,0.0,0.0,22,0.00, +FZSN FG BLRA SQ BLRA,OVC100 VV000 5SM,0.00,WUHU216HW,2013-01-19 21:39:00,
2013-01-19 14:44:00,67.0,25.6,30.10,North,0,0.0,0.0,21,0.00, +FZSN FG BLRA SQ BLRA,OVC100 VV000 5SM,0.00,WUHU216HW,2013-01-19 21:44:00,
2013-01-19 14:49:00,67.5,26.1,30.10,North,0,0.0,0.0,21,0.00, +FZSN FG BLRA SQ BLRA,OVC100 VV000 5SM,0.00,WUHU216HW,2013-01-19 21:49:00,
2013-01-19 14:55:00,68.2,26.7,30.10,North,0,0.0,0.0,21,0.00, +FZSN FG BLRA SQ BLRA,OVC100 VV000 5SM,0.00,WUHU216HW,2013-01-19 21:55:00,
2013-01-19 15:00:00,68.8,26.1,30.09,North,0,0.0,0.0,20,0.00, +FZSN FG BLRA SQ BLRA,OVC100 VV000 5SM,0.00,WUHU216HW,2013-01-19 22:00:00,
2013-01-19 15:06:00,68.9,24.7,30.09,North,0,0.0,0.0,19,0.00, +FZSN FG BLRA SQ BLRA,OVC100 VV000 5SM,0.00,WUHU216HW,2013-01-19 22:06:00,
2013-01-19 15:12:00,68.4,22.7,30.09,North,0,0.0,0.0,18,0.00, +FZSN FG BLRA SQ BLRA,OVC100 VV000 5SM,0.00,WUHU216HW,2013-01-19 22:12:00,
2013-01-19 15:17:00,69.3,24.9,30.09,North,0,0.0,0.0,19,0.00, +FZSN FG BLRA SQ BLRA,OVC100 VV000 5SM,0.00,WUHU216HW,2013-01-19 22:17:00,
2013-01-19 15:22:00,70.0,25.6,30.09,North,0,0.0,0.0,19,0.00, +FZSN FG BLRA SQ BLRA,OVC100 VV000 5SM,0.00,WUHU216HW,2013-01-19 22:22:00,
2013-01-19 15:27:00,70.9,24.7,30.09,North,0,0.0,0.0,18,0.00, +FZSN FG BLRA SQ BLRA,OVC100 VV000 5SM,0.00,WUHU216HW,2013-01-19 22:27:00,
2013-01-19 15:32:00,71.3,24.9,30.09,North,0,0.0,0.0,18,0.00, +FZSN FG BLRA SQ BLRA,OVC100 VV000 5SM,0.00,WUHU216HW,2013-01-19 22:32:00,
2013-01-19 15:37:00,70.9,23.1,30.09,North,0,0.0,0.0,17,0.00, +FZSN FG BLRA SQ BLRA,OVC100 VV000 5SM,0.00,WUHU216HW,2013-01-19 22:37:00,
2013-01-19 15:42:00,71.6,23.6,30.09,North,0,0.0,0.0,17,0.00, +FZSN FG BLRA SQ BLRA,OVC100 VV000 5SM,0.00,WUHU216HW,2013-01-19 22:42:00,
2013-01-19 15:47:00,72.5,24.4,30.09,North,0,0.0,0.0,17,0.00, +FZSN FG BLRA SQ BLRA,OVC100 VV000 5SM,0.00,WUHU216HW,2013-01-19 22:47:00,
2013-01-19 15:53:00,73.4,25.1,30.09,North,0,0.0,0.0,17,0.00, +FZSN FG BLRA SQ BLRA,OVC100 VV000 5SM,0.00,WUHU216HW,2013-01-19 22:53:00,
2013-01-19 15:58:00,73.8,25.4,30.09,North,0,0.0,0.0,17,0.00, +FZSN FG BLRA SQ BLRA,OVC100 VV000 5SM,0.00,WUHU216HW,2013-01-19 22:58:00,
2013-01-19 16:03:00,73.3,25.0,30.09,North,0,0.0,0.0,17,0.00, +FZSN FG BLRA SQ BLRA,OVC100 VV000 5SM,0.00,WUHU216HW,2013-01-19 23:03:00,
2013-01-19 16:08:00,73.8,25.4,30.09,North,0,0.0,0.0,17,0.00, +FZSN FG BLRA SQ BLRA,OVC100 VV000 5SM,0.00,WUHU216HW,2013-01-19 23:08:00,
2013-01-19 16:13:00,74.7,24.5,30.08,North,0,0.0,0.0,16,0.00, +FZSN FG BLRA SQ BLRA,OVC100 VV000 5SM,0.00,WUHU216HW,2013-01-19 23:13:00,
2013-01-19 16:18:00,76.5,25.9,30.08,North,0,0.0,0.0,16,0.00, +FZSN FG BLRA SQ BLRA,OVC100 VV000 5SM,0.00,WUHU216HW,2013-01-19 23:18:00,
2013-01-19 16:23:00,76.7,24.4,30.08,North,0,0.0,0.0,15,0.00, +FZSN FG BLRA SQ BLRA,OVC100 VV000 5SM,0.00,WUHU216HW,2013-01-19 23:23:00,
2013-01-19 16:28:00,77.9,25.4,30.08,North,0,0.0,0.0,15,0.00, +FZSN FG BLRA SQ BLRA,OVC100 VV000 5SM,0.00,WUHU216HW,2013-01-19 23:28:00,
2013-01-19 16:34:00,79.0,22.8,30.08,North,0,0.0,0.0,13,0.00, +FZSN FG BLRA SQ BLRA,OVC100 VV000 5SM,0.00,WUHU216HW,2013-01-19 23:34:00,
2013-01-19 16:39:00,79.0,22.8,30.08,North,0,0.0,0.0,13,0.00, +FZSN FG BLRA SQ BLRA,OVC100 VV000 5SM,0.00,WUHU216HW,2013-01-19 23:39:00,
2013-01-19 16:44:00,79.0,22.8,30.08,North,0,0.0,0.0,13,0.00, +FZSN FG BLRA SQ BLRA,OVC100 VV000 5SM,0.00,WUHU216HW,2013-01-19 23:44:00,
2013-01-19 16:49:00,77.8,20.3,30.09,North,0,0.0,0.0,12,0.00, +FZSN FG BLRA SQ BLRA,OVC100 VV000 5SM,0.00,WUHU216HW,2013-01-19 23:49:00,
2013-01-19 16:54:00,74.7,19.5,30.08,North,0,0.0,0.0,13,0.00, +FZSN FG BLRA SQ BLRA,OVC100 VV000 5SM,0.00,WUHU216HW,2013-01-19 23:54:00,
2013-01-19 17:00:00,71.1,18.3,30.08,North,0,0.0,0.0,14,0.00, +FZSN FG BLRA SQ BLRA,OVC100 VV000 5SM,0.00,WUHU216HW,2013-01-20 00:00:00,
2013-01-19 17:05:00,70.0,19.1,30.09,North,0,0.0,0.0,15,0.00, +FZSN FG BLRA SQ BLRA,OVC100 VV000 5SM,0.00,WUHU216HW,2013-01-20 00:05:00,
2013-01-19 17:10:00,68.9,19.8,30.09,North,0,0.0,0.0,16,0.00, +FZSN FG BLRA SQ BLRA,OVC100 VV000 5SM,0.00,WUHU216HW,2013-01-20 00:10:00,
2013-01-19 17:16:00,67.5,18.7,30.08,North,0,0.0,0.0,16,0.00, +FZSN FG BLRA SQ BLRA,OVC100 VV000 5SM,0.00,WUHU216HW,2013-01-20 00:16:00,
2013-01-19 17:21:00,65.5,17.0,30.08,North,0,0.0,0.0,16,0.00, +FZSN FG BLRA SQ BLRA,OVC100 VV000 5SM,0.00,WUHU216HW,2013-01-20 00:21:00,
2013-01-19 17:26:00,63.4,16.9,30.09,North,0,0.0,0.0,17,0.00, +FZSN FG BLRA SQ BLRA,OVC100 VV000 5SM,0.00,WUHU216HW,2013-01-20 00:26:00,
2013-01-19 17:31:00,60.8,15.0,30.08,North,0,0.0,0.0,17,0.00, +FZSN FG BLRA SQ BLRA,OVC100 VV000 5SM,0.00,WUHU216HW,2013-01-20 00:31:00,
2013-01-19 17:36:00,58.7,13.1,30.09,North,0,0.0,0.0,17,0.00, +FZSN FG BLRA SQ BLRA,OVC100 VV000 5SM,0.00,WUHU216HW,2013-01-20 00:36:00,
2013-01-19 17:41:00,57.2,13.5,30.08,North,0,0.0,0.0,18,0.00, +FZSN FG BLRA SQ BLRA,OVC100 VV000 5SM,0.00,WUHU216HW,2013-01-20 00:41:00,
2013-01-19 17:46:00,55.8,12.3,30.08,North,0,0.0,0.0,18,0.00, +FZSN FG BLRA SQ BLRA,OVC100 VV000 5SM,0.00,WUHU216HW,2013-01-20 00:46:00,
2013-01-19 17:52:00,54.5,14.3,30.09,North,0,0.0,0.0,20,0.00, +FZSN FG BLRA SQ BLRA,OVC100 VV000 5SM,0.00,WUHU216HW,2013-01-20 00:52:00,
2013-01-19 17:57:00,53.6,13.5,30.09,North,0,0.0,0.0,20,0.00, +FZSN FG BLRA SQ BLRA,OVC100 VV000 5SM,0.00,WUHU216HW,2013-01-20 00:57:00,
2013-01-19 18:02:00,52.2,13.3,30.09,North,0,0.0,0.0,21,0.00, +FZSN FG BLRA SQ BLRA,OVC100 VV000 5SM,0.00,WUHU216HW,2013-01-20 01:02:00,
2013-01-19 18:07:00,51.1,13.3,30.09,North,0,0.0,0.0,22,0.00, +FZSN FG BLRA SQ BLRA,OVC100 VV000 5SM,0.00,WUHU216HW,2013-01-20 01:07:00,
2013-01-19 18:13:00,49.7,13.1,30.09,North,0,0.0,0.0,23,0.00, +FZSN FG BLRA SQ BLRA,OVC100 VV000 5SM,0.00,WUHU216HW,2013-01-20 01:13:00,
2013-01-19 18:18:00,48.1,12.6,30.09,North,0,0.0,0.0,24,0.00, +FZSN FG BLRA SQ BLRA,OVC100 VV000 5SM,0.00,WUHU216HW,2013-01-20 01:18:00,
2013-01-19 18:23:00,46.6,12.3,30.09,North,0,0.0,0.0,25,0.00, +FZSN FG BLRA SQ BLRA,OVC100 VV000 5SM,0.00,WUHU216HW,2013-01-20 01:23:00,
2013-01-19 18:28:00,45.9,13.5,30.09,North,0,0.0,0.0,27,0.00, +FZSN FG BLRA SQ BLRA,OVC100 VV000 5SM,0.00,WUHU216HW,2013-01-20 01:28:00,
2013-01-19 18:33:00,45.2,12.9,30.09,North,0,0.0,0.0,27,0.00, +FZSN FG BLRA SQ BLRA,OVC100 VV000 5SM,0.00,WUHU216HW,2013-01-20 01:33:00,
2013-01-19 18:38:00,44.3,13.0,30.09,North,0,0.0,0.0,28,0.00, +FZSN FG BLRA SQ BLRA,OVC100 VV000 5SM,0.00,WUHU216HW,2013-01-20 01:38:00,
2013-01-19 18:43:00,43.6,13.2,30.09,North,0,0.0,0.0,29,0.00, +FZSN FG BLRA SQ BLRA,OVC100 VV000 5SM,0.00,WUHU216HW,2013-01-20 01:43:00,
2013-01-19 18:48:00,43.2,13.0,30.09,North,0,0.0,0.0,29,0.00, +FZSN FG BLRA SQ BLRA,OVC100 VV000 5SM,0.00,WUHU216HW,2013-01-20 01:48:00,
2013-01-19 18:53:00,42.7,12.4,30.10,North,0,0.0,0.0,29,0.00, +FZSN FG BLRA SQ BLRA,OVC100 VV000 5SM,0.00,WUHU216HW,2013-01-20 01:53:00,
2013-01-19 18:59:00,42.1,12.1,30.10,North,0,0.0,0.0,29,0.00, +FZSN FG BLRA SQ BLRA,OVC100 VV000 5SM,0.00,WUHU216HW,2013-01-20 01:59:00,
2013-01-19 19:04:00,41.4,11.4,30.10,North,0,0.0,0.0,29,0.00, +FZSN FG BLRA SQ BLRA,OVC100 VV000 5SM,0.00,WUHU216HW,2013-01-20 02:04:00,
2013-01-19 19:09:00,40.7,11.7,30.10,North,0,0.0,0.0,30,0.00, +FZSN FG BLRA SQ BLRA,OVC100 VV000 5SM,0.00,WUHU216HW,2013-01-20 02:09:00,
2013-01-19 19:14:00,40.3,12.1,30.10,North,0,0.0,0.0,31,0.00, +FZSN FG BLRA SQ BLRA,OVC100 VV000 5SM,0.00,WUHU216HW,2013-01-20 02:14:00,
2013-01-19 19:19:00,40.1,11.9,30.10,North,0,0.0,0.0,31,0.00, +FZSN FG BLRA SQ BLRA,OVC100 VV000 5SM,0.00,WUHU216HW,2013-01-20 02:19:00,
2013-01-19 19:24:00,39.8,12.3,30.10,North,0,0.0,0.0,32,0.00, +FZSN FG BLRA SQ BLRA,OVC100 VV000 5SM,0.00,WUHU216HW,2013-01-20 02:24:00,
2013-01-19 19:29:00,39.4,11.9,30.10,North,0,0.0,0.0,32,0.00, +FZSN FG BLRA SQ BLRA,OVC100 VV000 5SM,0.00,WUHU216HW,2013-01-20 02:29:00,
2013-01-19 19:34:00,39.4,11.3,30.10,North,0,0.0,0.0,31,0.00, +FZSN FG BLRA SQ BLRA,OVC100 VV000 5SM,0.00,WUHU216HW,2013-01-20 02:34:00,
2013-01-19 19:39:00,39.1,11.6,30.10,North,0,0.0,0.0,32,0.00, +FZSN FG BLRA SQ BLRA,OVC100 VV000 5SM,0.00,WUHU216HW,2013-01-20 02:39:00,
2013-01-19 19:44:00,38.5,11.1,30.10,North,0,0.0,0.0,32,0.00, +FZSN FG BLRA SQ BLRA,OVC100 VV000 5SM,0.00,WUHU216HW,2013-01-20 02:44:00,
2013-01-19 19:49:00,38.2,10.8,30.10,North,0,0.0,0.0,32,0.00, +FZSN FG BLRA SQ BLRA,OVC100 VV000 5SM,0.00,WUHU216HW,2013-01-20 02:49:00,
2013-01-19 19:55:00,37.6,10.3,30.11,North,0,0.0,0.0,32,0.00, +FZSN FG BLRA SQ BLRA,OVC100 VV000 5SM,0.00,WUHU216HW,2013-01-20 02:55:00,
2013-01-19 19:59:00,37.3,10.6,30.11,North,0,0.0,0.0,33,0.00, +FZSN FG BLRA SQ BLRA,OVC100 VV000 5SM,0.00,WUHU216HW,2013-01-20 02:59:00,
2013-01-19 20:05:00,37.8,12.4,30.11,North,0,0.0,0.0,35,0.00, +FZSN FG BLRA SQ BLRA,OVC100 VV000 5SM,0.00,WUHU216HW,2013-01-20 03:05:00,
2013-01-19 20:10:00,37.1,10.4,30.11,North,0,0.0,0.0,33,0.00, +FZSN FG BLRA SQ BLRA,OVC100 VV000 5SM,0.00,WUHU216HW,2013-01-20 03:10:00,
2013-01-19 20:15:00,36.2,10.3,30.11,North,0,0.0,0.0,34,0.00, +FZSN FG BLRA SQ BLRA,OVC100 VV000 5SM,0.00,WUHU216HW,2013-01-20 03:15:00,
2013-01-19 20:20:00,34.9,9.2,30.11,North,0,0.0,0.0,34,0.00, +FZSN FG BLRA SQ BLRA,OVC100 VV000 5SM,0.00,WUHU216HW,2013-01-20 03:20:00,
2013-01-19 20:25:00,34.0,10.4,30.11,North,0,0.0,0.0,37,0.00, +FZSN FG BLRA SQ BLRA,OVC100 VV000 5SM,0.00,WUHU216HW,2013-01-20 03:25:00,
2013-01-19 20:30:00,33.3,10.4,30.12,North,0,0.0,0.0,38,0.00, +FZSN FG BLRA SQ BLRA,OVC100 VV000 5SM,0.00,WUHU216HW,2013-01-20 03:30:00,
2013-01-19 20:35:00,32.6,9.6,30.12,North,0,0.0,0.0,38,0.00, +FZSN FG BLRA SQ BLRA,OVC100 VV000 5SM,0.00,WUHU216HW,2013-01-20 03:35:00,
2013-01-19 20:41:00,32.0,9.8,30.12,North,0,0.0,0.0,39,0.00, +FZSN FG BLRA SQ BLRA,OVC100 VV000 5SM,0.00,WUHU216HW,2013-01-20 03:41:00,
2013-01-19 20:46:00,31.5,8.7,30.12,North,0,0.0,0.0,38,0.00, +FZSN FG BLRA SQ BLRA,OVC100 VV000 5SM,0.00,WUHU216HW,2013-01-20 03:46:00,
2013-01-19 20:51:00,31.3,9.2,30.12,North,0,0.0,0.0,39,0.00, +FZSN FG BLRA SQ BLRA,OVC100 VV000 5SM,0.00,WUHU216HW,2013-01-20 03:51:00,
2013-01-19 20:57:00,31.7,9.5,30.12,North,0,0.0,0.0,39,0.00, +FZSN FG BLRA SQ BLRA,OVC100 VV000 5SM,0.00,WUHU216HW,2013-01-20 03:57:00,
2013-01-19 21:02:00,32.2,10.6,30.12,North,0,0.0,0.0,40,0.00, +FZSN FG BLRA SQ BLRA,OVC100 VV000 5SM,0.00,WUHU216HW,2013-01-20 04:02:00,
2013-01-19 21:07:00,32.6,10.9,30.12,North,0,0.0,0.0,40,0.00, +FZSN FG BLRA SQ BLRA,OVC100 VV000 5SM,0.00,WUHU216HW,2013-01-20 04:07:00,
2013-01-19 21:12:00,32.8,11.1,30.12,North,0,0.0,0.0,40,0.00, +FZSN FG BLRA SQ BLRA,OVC100 VV000 5SM,0.00,WUHU216HW,2013-01-20 04:12:00,
2013-01-19 21:17:00,32.6,10.3,30.12,North,0,0.0,0.0,39,0.00, +FZSN FG BLRA SQ BLRA,OVC100 VV000 5SM,0.00,WUHU216HW,2013-01-20 04:17:00,
2013-01-19 21:23:00,32.4,10.2,30.12,North,0,0.0,0.0,39,0.00, +FZSN FG BLRA SQ BLRA,OVC100 VV000 5SM,0.00,WUHU216HW,2013-01-20 04:23:00,
2013-01-19 21:28:00,32.4,11.3,30.12,North,0,0.0,0.0,41,0.00, +FZSN FG BLRA SQ BLRA,OVC100 VV000 5SM,0.00,WUHU216HW,2013-01-20 04:28:00,
2013-01-19 21:33:00,32.4,10.8,30.12,North,0,0.0,0.0,40,0.00, +FZSN FG BLRA SQ BLRA,OVC100 VV000 5SM,0.00,WUHU216HW,2013-01-20 04:33:00,
2013-01-19 21:38:00,32.2,10.6,30.12,North,0,0.0,0.0,40,0.00, +FZSN FG BLRA SQ BLRA,OVC100 VV000 5SM,0.00,WUHU216HW,2013-01-20 04:38:00,
2013-01-19 21:43:00,32.0,9.8,30.12,North,0,0.0,0.0,39,0.00, +FZSN FG BLRA SQ BLRA,OVC100 VV000 5SM,0.00,WUHU216HW,2013-01-20 04:43:00,
2013-01-19 21:48:00,32.0,10.4,30.13,North,0,0.0,0.0,40,0.00, +FZSN FG BLRA SQ BLRA,OVC100 VV000 5SM,0.00,WUHU216HW,2013-01-20 04:48:00,
2013-01-19 21:53:00,32.2,10.6,30.13,North,0,0.0,0.0,40,0.00, +FZSN FG BLRA SQ BLRA,OVC100 VV000 5SM,0.00,WUHU216HW,2013-01-20 04:53:00,
2013-01-19 21:58:00,32.0,11.0,30.13,North,0,0.0,0.0,41,0.00, +FZSN FG BLRA SQ BLRA,OVC100 VV000 5SM,0.00,WUHU216HW,2013-01-20 04:58:00,
2013-01-19 22:00:00,32.0,11.0,30.13,North,0,0.0,0.0,41,0.00, +FZSN FG BLRA SQ BLRA,OVC100 VV000 5SM,0.00,WUHU216HW,2013-01-20 05:00:00,
2013-01-19 22:01:00,32.0,10.4,30.13,North,0,0.0,0.0,40,0.00, +FZSN FG BLRA SQ BLRA,OVC100 VV000 5SM,0.00,WUHU216HW,2013-01-20 05:01:00,
2013-01-19 22:03:00,32.0,9.8,30.13,North,0,0.0,0.0,39,0.00, +FZSN FG BLRA SQ BLRA,OVC100 VV000 5SM,0.00,WUHU216HW,2013-01-20 05:03:00,
2013-01-19 22:09:00,31.7,9.5,30.13,North,0,0.0,0.0,39,0.00, +FZSN FG BLRA SQ BLRA,OVC100 VV000 5SM,0.00,WUHU216HW,2013-01-20 05:09:00,
2013-01-19 22:14:00,31.3,9.8,30.13,North,0,0.0,0.0,40,0.00, +FZSN FG BLRA SQ BLRA,OVC100 VV000 5SM,0.00,WUHU216HW,2013-01-20 05:14:00,
2013-01-19 22:19:00,31.1,10.2,30.13,North,0,0.0,0.0,41,0.00, +FZSN FG BLRA SQ BLRA,OVC100 VV000 5SM,0.00,WUHU216HW,2013-01-20 05:19:00,
2013-01-19 22:24:00,31.1,10.6,30.13,North,0,0.0,0.0,42,0.00, +FZSN FG BLRA SQ BLRA,OVC100 VV000 5SM,0.00,WUHU216HW,2013-01-20 05:24:00,
2013-01-19 22:29:00,31.3,10.3,30.13,North,0,0.0,0.0,41,0.00, +FZSN FG BLRA SQ BLRA,OVC100 VV000 5SM,0.00,WUHU216HW,2013-01-20 05:29:00,
2013-01-19 22:34:00,31.1,10.6,30.13,North,0,0.0,0.0,42,0.00, +FZSN FG BLRA SQ BLRA,OVC100 VV000 5SM,0.00,WUHU216HW,2013-01-20 05:34:00,
2013-01-19 22:39:00,31.0,10.4,30.13,North,0,0.0,0.0,42,0.00, +FZSN FG BLRA SQ BLRA,OVC100 VV000 5SM,0.00,WUHU216HW,2013-01-20 05:39:00,
2013-01-19 22:44:00,30.6,10.2,30.13,North,0,0.0,0.0,42,0.00, +FZSN FG BLRA SQ BLRA,OVC100 VV000 5SM,0.00,WUHU216HW,2013-01-20 05:44:00,
2013-01-19 22:49:00,30.4,10.0,30.14,North,0,0.0,0.0,42,0.00, +FZSN FG BLRA SQ BLRA,OVC100 VV000 5SM,0.00,WUHU216HW,2013-01-20 05:49:00,
2013-01-19 22:54:00,30.2,10.4,30.13,North,0,0.0,0.0,43,0.00, +FZSN FG BLRA SQ BLRA,OVC100 VV000 5SM,0.00,WUHU216HW,2013-01-20 05:54:00,
2013-01-19 22:59:00,29.9,10.5,30.14,North,0,0.0,0.0,44,0.00, +FZSN FG BLRA SQ BLRA,OVC100 VV000 5SM,0.00,WUHU216HW,2013-01-20 05:59:00,
2013-01-19 23:04:00,29.9,10.5,30.14,North,0,0.0,0.0,44,0.00, +FZSN FG BLRA SQ BLRA,OVC100 VV000 5SM,0.00,WUHU216HW,2013-01-20 06:04:00,
2013-01-19 23:09:00,30.1,11.2,30.14,North,0,0.0,0.0,45,0.00, +FZSN FG BLRA SQ BLRA,OVC100 VV000 5SM,0.00,WUHU216HW,2013-01-20 06:09:00,
2013-01-19 23:14:00,29.9,11.0,30.14,North,0,0.0,0.0,45,0.00, +FZSN FG BLRA SQ BLRA,OVC100 VV000 5SM,0.00,WUHU216HW,2013-01-20 06:14:00,
2013-01-19 23:19:00,29.3,10.0,30.14,North,0,0.0,0.0,44,0.00, +FZSN FG BLRA SQ BLRA,OVC100 VV000 5SM,0.00,WUHU216HW,2013-01-20 06:19:00,
2013-01-19 23:24:00,29.0,10.2,30.13,North,0,0.0,0.0,45,0.00, +FZSN FG BLRA SQ BLRA,OVC100 VV000 5SM,0.00,WUHU216HW,2013-01-20 06:24:00,
2013-01-19 23:29:00,28.3,9.5,30.13,North,0,0.0,0.0,45,0.00, +FZSN FG BLRA SQ BLRA,OVC100 VV000 5SM,0.00,WUHU216HW,2013-01-20 06:29:00,
2013-01-19 23:33:00,27.9,10.2,30.13,North,0,0.0,0.0,47,0.00, +FZSN FG BLRA SQ BLRA,OVC100 VV000 5SM,0.00,WUHU216HW,2013-01-20 06:33:00,
2013-01-19 23:38:00,27.7,10.0,30.13,North,0,0.0,0.0,47,0.00, +FZSN FG BLRA SQ BLRA,OVC100 VV000 5SM,0.00,WUHU216HW,2013-01-20 06:38:00,
2013-01-19 23:43:00,27.5,10.4,30.13,North,0,0.0,0.0,48,0.00, +FZSN FG BLRA SQ BLRA,OVC100 VV000 5SM,0.00,WUHU216HW,2013-01-20 06:43:00,
2013-01-19 23:48:00,27.7,10.5,30.13,North,0,0.0,0.0,48,0.00, +FZSN FG BLRA SQ BLRA,OVC100 VV000 5SM,0.00,WUHU216HW,2013-01-20 06:48:00,
2013-01-19 23:53:00,27.4,10.2,30.13,North,0,0.0,0.0,48,0.00, +FZSN FG BLRA SQ BLRA,OVC100 VV000 5SM,0.00,WUHU216HW,2013-01-20 06:53:00,
2013-01-19 23:58:00,27.5,10.9,30.13,North,0,0.0,0.0,49,0.00, +FZSN FG BLRA SQ BLRA,OVC100 VV000 5SM,0.00,WUHU216HW,2013-01-20 06:58:00,